sensor_id;sensor_type;location;lat;lon;timestamp;P1;durP1;ratioP1;P2;durP2;ratioP2
6197;SDS011;3132;42.622;23.328;2022-10-23T00:01:51;18.83;;;16.83;;
6197;SDS011;3132;42.622;23.328;2022-10-23T00:04:18;19.67;;;17.20;;
6197;SDS011;3132;42.622;23.328;2022-10-23T00:06:45;17.93;;;16.03;;
6197;SDS011;3132;42.622;23.328;2022-10-23T00:09:11;24.40;;;18.17;;
6197;SDS011;3132;42.622;23.328;2022-10-23T00:11:38;19.83;;;17.77;;
6197;SDS011;3132;42.622;23.328;2022-10-23T00:14:04;21.83;;;17.57;;
6197;SDS011;3132;42.622;23.328;2022-10-23T00:16:32;19.87;;;17.77;;
6197;SDS011;3132;42.622;23.328;2022-10-23T00:18:58;21.80;;;18.20;;
6197;SDS011;3132;42.622;23.328;2022-10-23T00:21:23;18.57;;;16.77;;
6197;SDS011;3132;42.622;23.328;2022-10-23T00:23:49;17.87;;;16.17;;
6197;SDS011;3132;42.622;23.328;2022-10-23T00:26:15;19.47;;;16.97;;
6197;SDS011;3132;42.622;23.328;2022-10-23T00:28:42;20.07;;;17.00;;
6197;SDS011;3132;42.622;23.328;2022-10-23T00:31:09;21.17;;;15.17;;
6197;SDS011;3132;42.622;23.328;2022-10-23T00:33:34;18.33;;;15.23;;
6197;SDS011;3132;42.622;23.328;2022-10-23T00:36:02;17.10;;;15.23;;
6197;SDS011;3132;42.622;23.328;2022-10-23T00:38:31;16.37;;;14.27;;
6197;SDS011;3132;42.622;23.328;2022-10-23T00:40:57;16.03;;;13.87;;
6197;SDS011;3132;42.622;23.328;2022-10-23T00:43:24;16.20;;;14.47;;
6197;SDS011;3132;42.622;23.328;2022-10-23T00:45:51;15.60;;;13.97;;
6197;SDS011;3132;42.622;23.328;2022-10-23T00:48:16;17.43;;;14.37;;
6197;SDS011;3132;42.622;23.328;2022-10-23T00:50:43;15.87;;;13.17;;
6197;SDS011;3132;42.622;23.328;2022-10-23T00:53:11;14.17;;;12.90;;
6197;SDS011;3132;42.622;23.328;2022-10-23T00:55:38;16.90;;;12.53;;
6197;SDS011;3132;42.622;23.328;2022-10-23T00:58:11;13.43;;;12.13;;
6197;SDS011;3132;42.622;23.328;2022-10-23T01:00:50;14.20;;;12.90;;
6197;SDS011;3132;42.622;23.328;2022-10-23T01:03:18;15.37;;;12.97;;
6197;SDS011;3132;42.622;23.328;2022-10-23T01:05:49;18.13;;;13.30;;
6197;SDS011;3132;42.622;23.328;2022-10-23T01:10:59;14.00;;;12.60;;
6197;SDS011;3132;42.622;23.328;2022-10-23T01:13:38;19.47;;;13.53;;
6197;SDS011;3132;42.622;23.328;2022-10-23T01:19:58;14.87;;;13.53;;
6197;SDS011;3132;42.622;23.328;2022-10-23T01:27:27;18.40;;;16.50;;
6197;SDS011;3132;42.622;23.328;2022-10-23T01:38:08;23.27;;;19.03;;
6197;SDS011;3132;42.622;23.328;2022-10-23T01:43:28;21.37;;;18.60;;
6197;SDS011;3132;42.622;23.328;2022-10-23T01:46:02;23.13;;;18.33;;
6197;SDS011;3132;42.622;23.328;2022-10-23T01:48:31;26.90;;;18.90;;
6197;SDS011;3132;42.622;23.328;2022-10-23T01:51:00;44.83;;;27.50;;
6197;SDS011;3132;42.622;23.328;2022-10-23T01:53:29;22.13;;;19.77;;
6197;SDS011;3132;42.622;23.328;2022-10-23T01:56:00;24.30;;;19.43;;
6197;SDS011;3132;42.622;23.328;2022-10-23T01:58:30;26.53;;;21.40;;
6197;SDS011;3132;42.622;23.328;2022-10-23T02:01:00;27.00;;;18.97;;
6197;SDS011;3132;42.622;23.328;2022-10-23T02:03:29;25.27;;;21.37;;
6197;SDS011;3132;42.622;23.328;2022-10-23T02:05:57;20.97;;;18.60;;
6197;SDS011;3132;42.622;23.328;2022-10-23T02:08:22;21.07;;;17.30;;
6197;SDS011;3132;42.622;23.328;2022-10-23T02:13:27;27.00;;;20.23;;
6197;SDS011;3132;42.622;23.328;2022-10-23T02:16:09;26.23;;;20.37;;
6197;SDS011;3132;42.622;23.328;2022-10-23T02:21:54;24.03;;;18.93;;
6197;SDS011;3132;42.622;23.328;2022-10-23T02:24:29;21.87;;;17.47;;
6197;SDS011;3132;42.622;23.328;2022-10-23T02:27:02;22.77;;;18.10;;
6197;SDS011;3132;42.622;23.328;2022-10-23T02:30:18;22.93;;;18.40;;
6197;SDS011;3132;42.622;23.328;2022-10-23T02:32:31;23.10;;;17.00;;
6197;SDS011;3132;42.622;23.328;2022-10-23T02:34:58;19.60;;;17.07;;
6197;SDS011;3132;42.622;23.328;2022-10-23T02:37:24;18.63;;;16.73;;
6197;SDS011;3132;42.622;23.328;2022-10-23T02:39:50;18.30;;;16.13;;
6197;SDS011;3132;42.622;23.328;2022-10-23T02:42:24;17.43;;;15.33;;
6197;SDS011;3132;42.622;23.328;2022-10-23T02:44:58;16.97;;;15.20;;
6197;SDS011;3132;42.622;23.328;2022-10-23T02:58:47;19.83;;;14.23;;
6197;SDS011;3132;42.622;23.328;2022-10-23T03:01:24;17.60;;;14.63;;
6197;SDS011;3132;42.622;23.328;2022-10-23T03:03:54;18.93;;;14.00;;
6197;SDS011;3132;42.622;23.328;2022-10-23T03:06:22;17.97;;;15.63;;
6197;SDS011;3132;42.622;23.328;2022-10-23T03:08:51;18.27;;;13.77;;
6197;SDS011;3132;42.622;23.328;2022-10-23T03:11:28;15.27;;;13.73;;
6197;SDS011;3132;42.622;23.328;2022-10-23T03:13:54;16.17;;;14.60;;
6197;SDS011;3132;42.622;23.328;2022-10-23T03:16:19;20.37;;;13.90;;
6197;SDS011;3132;42.622;23.328;2022-10-23T03:18:45;15.23;;;13.80;;
6197;SDS011;3132;42.622;23.328;2022-10-23T03:21:10;15.23;;;13.83;;
6197;SDS011;3132;42.622;23.328;2022-10-23T03:23:35;14.57;;;13.23;;
6197;SDS011;3132;42.622;23.328;2022-10-23T03:26:01;13.87;;;12.80;;
6197;SDS011;3132;42.622;23.328;2022-10-23T03:28:26;14.00;;;12.80;;
6197;SDS011;3132;42.622;23.328;2022-10-23T03:30:51;13.80;;;12.53;;
6197;SDS011;3132;42.622;23.328;2022-10-23T03:33:17;13.57;;;12.17;;
6197;SDS011;3132;42.622;23.328;2022-10-23T03:35:43;13.80;;;12.40;;
6197;SDS011;3132;42.622;23.328;2022-10-23T03:38:08;15.87;;;13.33;;
6197;SDS011;3132;42.622;23.328;2022-10-23T03:40:34;16.33;;;13.50;;
6197;SDS011;3132;42.622;23.328;2022-10-23T03:42:59;16.50;;;13.90;;
6197;SDS011;3132;42.622;23.328;2022-10-23T03:45:25;16.47;;;13.87;;
6197;SDS011;3132;42.622;23.328;2022-10-23T03:47:50;13.90;;;12.50;;
6197;SDS011;3132;42.622;23.328;2022-10-23T03:50:16;16.20;;;13.43;;
6197;SDS011;3132;42.622;23.328;2022-10-23T03:52:43;13.27;;;12.17;;
6197;SDS011;3132;42.622;23.328;2022-10-23T03:55:09;13.43;;;11.90;;
6197;SDS011;3132;42.622;23.328;2022-10-23T03:57:35;16.07;;;12.30;;
6197;SDS011;3132;42.622;23.328;2022-10-23T04:00:01;14.30;;;12.13;;
6197;SDS011;3132;42.622;23.328;2022-10-23T04:02:28;12.33;;;11.30;;
6197;SDS011;3132;42.622;23.328;2022-10-23T04:04:53;13.83;;;11.90;;
6197;SDS011;3132;42.622;23.328;2022-10-23T04:07:19;19.07;;;12.40;;
6197;SDS011;3132;42.622;23.328;2022-10-23T04:09:44;12.57;;;11.57;;
6197;SDS011;3132;42.622;23.328;2022-10-23T04:12:10;11.97;;;10.77;;
6197;SDS011;3132;42.622;23.328;2022-10-23T04:14:35;12.83;;;11.57;;
6197;SDS011;3132;42.622;23.328;2022-10-23T04:17:01;11.43;;;10.53;;
6197;SDS011;3132;42.622;23.328;2022-10-23T04:19:26;12.97;;;11.90;;
6197;SDS011;3132;42.622;23.328;2022-10-23T04:21:51;16.27;;;11.57;;
6197;SDS011;3132;42.622;23.328;2022-10-23T04:24:17;12.03;;;10.93;;
6197;SDS011;3132;42.622;23.328;2022-10-23T04:26:42;12.83;;;11.80;;
6197;SDS011;3132;42.622;23.328;2022-10-23T04:29:07;12.03;;;11.00;;
6197;SDS011;3132;42.622;23.328;2022-10-23T04:31:33;12.10;;;11.17;;
6197;SDS011;3132;42.622;23.328;2022-10-23T04:33:58;12.87;;;11.87;;
6197;SDS011;3132;42.622;23.328;2022-10-23T04:36:24;12.27;;;11.27;;
6197;SDS011;3132;42.622;23.328;2022-10-23T04:38:49;11.00;;;10.13;;
6197;SDS011;3132;42.622;23.328;2022-10-23T04:41:14;11.70;;;10.60;;
6197;SDS011;3132;42.622;23.328;2022-10-23T04:43:40;11.63;;;10.40;;
6197;SDS011;3132;42.622;23.328;2022-10-23T04:46:05;12.53;;;11.10;;
6197;SDS011;3132;42.622;23.328;2022-10-23T04:48:31;11.97;;;10.80;;
6197;SDS011;3132;42.622;23.328;2022-10-23T04:50:57;13.90;;;11.67;;
6197;SDS011;3132;42.622;23.328;2022-10-23T04:53:24;13.20;;;11.90;;
6197;SDS011;3132;42.622;23.328;2022-10-23T04:55:51;13.63;;;12.10;;
6197;SDS011;3132;42.622;23.328;2022-10-23T04:58:17;12.23;;;11.23;;
6197;SDS011;3132;42.622;23.328;2022-10-23T05:00:44;12.77;;;11.47;;
6197;SDS011;3132;42.622;23.328;2022-10-23T05:03:10;13.77;;;11.30;;
6197;SDS011;3132;42.622;23.328;2022-10-23T05:05:35;18.23;;;12.13;;
6197;SDS011;3132;42.622;23.328;2022-10-23T05:08:01;13.07;;;11.73;;
6197;SDS011;3132;42.622;23.328;2022-10-23T05:10:26;12.30;;;11.20;;
6197;SDS011;3132;42.622;23.328;2022-10-23T05:12:52;12.77;;;11.50;;
6197;SDS011;3132;42.622;23.328;2022-10-23T05:15:17;12.63;;;11.43;;
6197;SDS011;3132;42.622;23.328;2022-10-23T05:17:42;12.57;;;11.27;;
6197;SDS011;3132;42.622;23.328;2022-10-23T05:20:12;13.63;;;11.73;;
6197;SDS011;3132;42.622;23.328;2022-10-23T05:22:42;12.23;;;11.27;;
6197;SDS011;3132;42.622;23.328;2022-10-23T05:25:09;11.90;;;10.83;;
6197;SDS011;3132;42.622;23.328;2022-10-23T05:27:35;12.70;;;11.47;;
6197;SDS011;3132;42.622;23.328;2022-10-23T05:30:00;12.73;;;11.40;;
6197;SDS011;3132;42.622;23.328;2022-10-23T05:32:26;12.23;;;11.03;;
6197;SDS011;3132;42.622;23.328;2022-10-23T05:34:55;12.47;;;11.47;;
6197;SDS011;3132;42.622;23.328;2022-10-23T05:37:21;12.20;;;11.30;;
6197;SDS011;3132;42.622;23.328;2022-10-23T05:39:46;12.57;;;11.37;;
6197;SDS011;3132;42.622;23.328;2022-10-23T05:42:11;12.87;;;11.57;;
6197;SDS011;3132;42.622;23.328;2022-10-23T05:44:37;12.30;;;11.13;;
6197;SDS011;3132;42.622;23.328;2022-10-23T05:47:02;13.47;;;12.27;;
6197;SDS011;3132;42.622;23.328;2022-10-23T05:49:28;12.13;;;11.23;;
6197;SDS011;3132;42.622;23.328;2022-10-23T05:51:53;12.77;;;10.93;;
6197;SDS011;3132;42.622;23.328;2022-10-23T05:54:18;12.30;;;11.00;;
6197;SDS011;3132;42.622;23.328;2022-10-23T05:56:44;11.10;;;10.20;;
6197;SDS011;3132;42.622;23.328;2022-10-23T05:59:09;11.83;;;10.70;;
6197;SDS011;3132;42.622;23.328;2022-10-23T06:01:35;11.37;;;10.27;;
6197;SDS011;3132;42.622;23.328;2022-10-23T06:04:01;11.97;;;10.97;;
6197;SDS011;3132;42.622;23.328;2022-10-23T06:06:27;11.07;;;10.07;;
6197;SDS011;3132;42.622;23.328;2022-10-23T06:08:53;12.80;;;11.70;;
6197;SDS011;3132;42.622;23.328;2022-10-23T06:11:18;11.00;;;10.20;;
6197;SDS011;3132;42.622;23.328;2022-10-23T06:13:44;14.03;;;10.20;;
6197;SDS011;3132;42.622;23.328;2022-10-23T06:16:12;11.83;;;11.00;;
6197;SDS011;3132;42.622;23.328;2022-10-23T06:18:45;12.20;;;11.20;;
6197;SDS011;3132;42.622;23.328;2022-10-23T06:21:12;13.57;;;12.20;;
6197;SDS011;3132;42.622;23.328;2022-10-23T06:23:38;12.90;;;10.53;;
6197;SDS011;3132;42.622;23.328;2022-10-23T06:26:05;13.27;;;11.17;;
6197;SDS011;3132;42.622;23.328;2022-10-23T06:28:33;12.03;;;11.03;;
6197;SDS011;3132;42.622;23.328;2022-10-23T06:30:58;11.93;;;10.77;;
6197;SDS011;3132;42.622;23.328;2022-10-23T06:33:24;12.00;;;11.13;;
6197;SDS011;3132;42.622;23.328;2022-10-23T06:35:49;11.80;;;10.70;;
6197;SDS011;3132;42.622;23.328;2022-10-23T06:38:14;11.60;;;10.80;;
6197;SDS011;3132;42.622;23.328;2022-10-23T06:40:40;11.03;;;10.20;;
6197;SDS011;3132;42.622;23.328;2022-10-23T06:43:05;11.90;;;10.83;;
6197;SDS011;3132;42.622;23.328;2022-10-23T06:45:32;12.50;;;11.50;;
6197;SDS011;3132;42.622;23.328;2022-10-23T06:47:59;12.53;;;11.43;;
6197;SDS011;3132;42.622;23.328;2022-10-23T06:50:25;13.07;;;11.80;;
6197;SDS011;3132;42.622;23.328;2022-10-23T06:52:51;11.57;;;10.77;;
6197;SDS011;3132;42.622;23.328;2022-10-23T06:55:17;13.20;;;11.87;;
6197;SDS011;3132;42.622;23.328;2022-10-23T06:57:43;11.60;;;10.50;;
6197;SDS011;3132;42.622;23.328;2022-10-23T07:00:09;12.43;;;11.50;;
6197;SDS011;3132;42.622;23.328;2022-10-23T07:02:35;12.37;;;11.17;;
6197;SDS011;3132;42.622;23.328;2022-10-23T07:05:00;11.03;;;9.70;;
6197;SDS011;3132;42.622;23.328;2022-10-23T07:07:28;11.80;;;10.90;;
6197;SDS011;3132;42.622;23.328;2022-10-23T07:09:53;10.30;;;9.70;;
6197;SDS011;3132;42.622;23.328;2022-10-23T07:12:19;10.53;;;9.33;;
6197;SDS011;3132;42.622;23.328;2022-10-23T07:14:44;10.90;;;10.10;;
6197;SDS011;3132;42.622;23.328;2022-10-23T07:17:09;10.03;;;9.33;;
6197;SDS011;3132;42.622;23.328;2022-10-23T07:19:35;9.10;;;8.60;;
6197;SDS011;3132;42.622;23.328;2022-10-23T07:22:00;10.03;;;9.20;;
6197;SDS011;3132;42.622;23.328;2022-10-23T07:24:26;10.00;;;9.50;;
6197;SDS011;3132;42.622;23.328;2022-10-23T07:26:51;10.50;;;9.67;;
6197;SDS011;3132;42.622;23.328;2022-10-23T07:29:17;10.20;;;9.40;;
6197;SDS011;3132;42.622;23.328;2022-10-23T07:31:42;9.93;;;9.33;;
6197;SDS011;3132;42.622;23.328;2022-10-23T07:34:08;10.00;;;9.33;;
6197;SDS011;3132;42.622;23.328;2022-10-23T07:36:34;9.73;;;9.13;;
6197;SDS011;3132;42.622;23.328;2022-10-23T07:38:59;10.23;;;9.53;;
6197;SDS011;3132;42.622;23.328;2022-10-23T07:41:24;10.20;;;9.43;;
6197;SDS011;3132;42.622;23.328;2022-10-23T07:43:50;9.63;;;8.90;;
6197;SDS011;3132;42.622;23.328;2022-10-23T07:46:15;9.67;;;9.07;;
6197;SDS011;3132;42.622;23.328;2022-10-23T07:48:41;9.70;;;9.03;;
6197;SDS011;3132;42.622;23.328;2022-10-23T07:51:08;9.60;;;8.90;;
6197;SDS011;3132;42.622;23.328;2022-10-23T07:53:36;9.40;;;8.77;;
6197;SDS011;3132;42.622;23.328;2022-10-23T07:56:08;9.53;;;8.93;;
6197;SDS011;3132;42.622;23.328;2022-10-23T07:58:36;9.50;;;8.60;;
6197;SDS011;3132;42.622;23.328;2022-10-23T08:01:02;8.07;;;7.63;;
6197;SDS011;3132;42.622;23.328;2022-10-23T08:03:29;8.97;;;8.57;;
6197;SDS011;3132;42.622;23.328;2022-10-23T08:05:57;10.57;;;9.83;;
6197;SDS011;3132;42.622;23.328;2022-10-23T08:08:23;9.23;;;8.70;;
6197;SDS011;3132;42.622;23.328;2022-10-23T08:10:50;9.00;;;8.50;;
6197;SDS011;3132;42.622;23.328;2022-10-23T08:13:17;9.57;;;8.87;;
6197;SDS011;3132;42.622;23.328;2022-10-23T08:15:44;8.93;;;8.43;;
6197;SDS011;3132;42.622;23.328;2022-10-23T08:18:11;9.87;;;9.23;;
6197;SDS011;3132;42.622;23.328;2022-10-23T08:20:43;9.93;;;9.33;;
6197;SDS011;3132;42.622;23.328;2022-10-23T08:23:10;10.20;;;9.37;;
6197;SDS011;3132;42.622;23.328;2022-10-23T08:25:40;9.27;;;8.80;;
6197;SDS011;3132;42.622;23.328;2022-10-23T08:28:06;10.53;;;9.83;;
6197;SDS011;3132;42.622;23.328;2022-10-23T08:30:32;10.30;;;9.60;;
6197;SDS011;3132;42.622;23.328;2022-10-23T08:32:58;9.73;;;9.13;;
6197;SDS011;3132;42.622;23.328;2022-10-23T08:35:23;10.07;;;9.47;;
6197;SDS011;3132;42.622;23.328;2022-10-23T08:37:49;10.13;;;9.43;;
6197;SDS011;3132;42.622;23.328;2022-10-23T08:40:15;10.17;;;9.50;;
6197;SDS011;3132;42.622;23.328;2022-10-23T08:42:41;9.37;;;8.87;;
6197;SDS011;3132;42.622;23.328;2022-10-23T08:47:44;10.30;;;9.30;;
6197;SDS011;3132;42.622;23.328;2022-10-23T08:50:25;9.50;;;8.80;;
6197;SDS011;3132;42.622;23.328;2022-10-23T08:53:02;9.63;;;8.93;;
6197;SDS011;3132;42.622;23.328;2022-10-23T08:55:40;8.77;;;8.23;;
6197;SDS011;3132;42.622;23.328;2022-10-23T08:58:10;9.87;;;9.37;;
6197;SDS011;3132;42.622;23.328;2022-10-23T09:00:40;10.03;;;9.23;;
6197;SDS011;3132;42.622;23.328;2022-10-23T09:03:08;8.67;;;7.83;;
6197;SDS011;3132;42.622;23.328;2022-10-23T09:05:48;9.27;;;8.67;;
6197;SDS011;3132;42.622;23.328;2022-10-23T09:11:17;9.30;;;8.47;;
6197;SDS011;3132;42.622;23.328;2022-10-23T09:13:59;8.57;;;8.07;;
6197;SDS011;3132;42.622;23.328;2022-10-23T09:18:55;8.60;;;8.10;;
6197;SDS011;3132;42.622;23.328;2022-10-23T09:21:31;10.13;;;9.13;;
6197;SDS011;3132;42.622;23.328;2022-10-23T09:23:56;9.80;;;8.93;;
6197;SDS011;3132;42.622;23.328;2022-10-23T09:26:22;9.43;;;8.83;;
6197;SDS011;3132;42.622;23.328;2022-10-23T09:28:51;9.70;;;9.10;;
6197;SDS011;3132;42.622;23.328;2022-10-23T09:31:20;9.27;;;8.77;;
6197;SDS011;3132;42.622;23.328;2022-10-23T09:33:52;8.33;;;7.93;;
6197;SDS011;3132;42.622;23.328;2022-10-23T09:36:22;10.30;;;9.37;;
6197;SDS011;3132;42.622;23.328;2022-10-23T09:38:51;8.80;;;8.20;;
6197;SDS011;3132;42.622;23.328;2022-10-23T09:41:19;9.73;;;8.87;;
6197;SDS011;3132;42.622;23.328;2022-10-23T09:43:58;9.43;;;8.17;;
6197;SDS011;3132;42.622;23.328;2022-10-23T09:46:39;9.07;;;8.47;;
6197;SDS011;3132;42.622;23.328;2022-10-23T09:49:13;9.20;;;8.60;;
6197;SDS011;3132;42.622;23.328;2022-10-23T09:51:46;8.67;;;8.07;;
6197;SDS011;3132;42.622;23.328;2022-10-23T09:54:16;9.53;;;8.97;;
6197;SDS011;3132;42.622;23.328;2022-10-23T09:56:45;10.00;;;9.30;;
6197;SDS011;3132;42.622;23.328;2022-10-23T10:01:45;9.43;;;8.83;;
6197;SDS011;3132;42.622;23.328;2022-10-23T10:04:12;9.23;;;8.53;;
6197;SDS011;3132;42.622;23.328;2022-10-23T10:06:37;9.10;;;8.33;;
6197;SDS011;3132;42.622;23.328;2022-10-23T10:09:11;9.57;;;8.97;;
6197;SDS011;3132;42.622;23.328;2022-10-23T10:11:51;9.60;;;8.93;;
6197;SDS011;3132;42.622;23.328;2022-10-23T10:35:25;8.87;;;8.37;;
6197;SDS011;3132;42.622;23.328;2022-10-23T10:38:09;8.63;;;8.17;;
6197;SDS011;3132;42.622;23.328;2022-10-23T10:49:11;7.80;;;7.50;;
6197;SDS011;3132;42.622;23.328;2022-10-23T10:57:09;8.67;;;8.10;;
6197;SDS011;3132;42.622;23.328;2022-10-23T10:59:51;8.60;;;8.20;;
6197;SDS011;3132;42.622;23.328;2022-10-23T11:02:25;8.30;;;7.90;;
6197;SDS011;3132;42.622;23.328;2022-10-23T11:07:50;8.60;;;8.10;;
6197;SDS011;3132;42.622;23.328;2022-10-23T11:10:18;8.37;;;7.97;;
6197;SDS011;3132;42.622;23.328;2022-10-23T11:12:44;7.83;;;7.37;;
6197;SDS011;3132;42.622;23.328;2022-10-23T11:15:15;8.47;;;7.97;;
6197;SDS011;3132;42.622;23.328;2022-10-23T11:17:49;8.33;;;7.93;;
6197;SDS011;3132;42.622;23.328;2022-10-23T11:20:24;8.00;;;7.60;;
6197;SDS011;3132;42.622;23.328;2022-10-23T11:23:04;8.80;;;8.13;;
6197;SDS011;3132;42.622;23.328;2022-10-23T11:36:54;8.70;;;8.20;;
6197;SDS011;3132;42.622;23.328;2022-10-23T11:39:23;8.20;;;7.70;;
6197;SDS011;3132;42.622;23.328;2022-10-23T11:44:39;8.60;;;8.20;;
6197;SDS011;3132;42.622;23.328;2022-10-23T11:47:26;9.17;;;8.67;;
6197;SDS011;3132;42.622;23.328;2022-10-23T11:55:17;7.87;;;7.47;;
6197;SDS011;3132;42.622;23.328;2022-10-23T12:00:38;9.10;;;8.50;;
6197;SDS011;3132;42.622;23.328;2022-10-23T12:03:23;8.73;;;8.23;;
6197;SDS011;3132;42.622;23.328;2022-10-23T12:06:00;8.77;;;8.03;;
6197;SDS011;3132;42.622;23.328;2022-10-23T12:08:29;9.23;;;8.73;;
6197;SDS011;3132;42.622;23.328;2022-10-23T12:10:57;8.53;;;8.13;;
6197;SDS011;3132;42.622;23.328;2022-10-23T12:16:01;9.87;;;8.97;;
6197;SDS011;3132;42.622;23.328;2022-10-23T12:18:27;9.30;;;8.60;;
6197;SDS011;3132;42.622;23.328;2022-10-23T12:20:53;8.63;;;8.13;;
6197;SDS011;3132;42.622;23.328;2022-10-23T12:23:32;9.40;;;8.80;;
6197;SDS011;3132;42.622;23.328;2022-10-23T12:31:32;8.45;;;8.02;;
6197;SDS011;3132;42.622;23.328;2022-10-23T12:39:23;9.23;;;8.43;;
6197;SDS011;3132;42.622;23.328;2022-10-23T12:41:50;9.07;;;8.57;;
6197;SDS011;3132;42.622;23.328;2022-10-23T12:44:16;8.30;;;7.73;;
6197;SDS011;3132;42.622;23.328;2022-10-23T12:46:42;9.13;;;8.53;;
6197;SDS011;3132;42.622;23.328;2022-10-23T12:49:21;7.67;;;7.27;;
6197;SDS011;3132;42.622;23.328;2022-10-23T12:52:02;8.60;;;8.00;;
6197;SDS011;3132;42.622;23.328;2022-10-23T12:54:30;8.90;;;8.50;;
6197;SDS011;3132;42.622;23.328;2022-10-23T12:56:56;9.40;;;8.50;;
6197;SDS011;3132;42.622;23.328;2022-10-23T12:59:30;9.40;;;8.90;;
6197;SDS011;3132;42.622;23.328;2022-10-23T13:02:39;8.93;;;8.40;;
6197;SDS011;3132;42.622;23.328;2022-10-23T13:05:01;9.63;;;9.03;;
6197;SDS011;3132;42.622;23.328;2022-10-23T13:07:34;9.50;;;8.90;;
6197;SDS011;3132;42.622;23.328;2022-10-23T13:10:04;8.70;;;8.20;;
6197;SDS011;3132;42.622;23.328;2022-10-23T13:12:34;8.37;;;7.97;;
6197;SDS011;3132;42.622;23.328;2022-10-23T13:15:11;8.53;;;8.10;;
6197;SDS011;3132;42.622;23.328;2022-10-23T13:18:13;8.43;;;8.03;;
6197;SDS011;3132;42.622;23.328;2022-10-23T13:20:42;8.80;;;8.20;;
6197;SDS011;3132;42.622;23.328;2022-10-23T13:25:57;9.07;;;8.67;;
6197;SDS011;3132;42.622;23.328;2022-10-23T13:33:35;9.33;;;8.83;;
6197;SDS011;3132;42.622;23.328;2022-10-23T13:36:18;8.57;;;7.97;;
6197;SDS011;3132;42.622;23.328;2022-10-23T13:41:22;8.20;;;7.80;;
6197;SDS011;3132;42.622;23.328;2022-10-23T13:43:48;7.87;;;7.47;;
6197;SDS011;3132;42.622;23.328;2022-10-23T13:46:22;8.67;;;8.17;;
6197;SDS011;3132;42.622;23.328;2022-10-23T13:48:51;9.10;;;8.30;;
6197;SDS011;3132;42.622;23.328;2022-10-23T13:51:21;8.33;;;7.93;;
6197;SDS011;3132;42.622;23.328;2022-10-23T13:53:49;7.60;;;7.20;;
6197;SDS011;3132;42.622;23.328;2022-10-23T13:56:16;8.73;;;8.17;;
6197;SDS011;3132;42.622;23.328;2022-10-23T13:58:43;9.17;;;8.47;;
6197;SDS011;3132;42.622;23.328;2022-10-23T14:01:19;8.53;;;8.00;;
6197;SDS011;3132;42.622;23.328;2022-10-23T14:03:47;8.53;;;8.07;;
6197;SDS011;3132;42.622;23.328;2022-10-23T14:06:14;8.30;;;7.70;;
6197;SDS011;3132;42.622;23.328;2022-10-23T14:08:39;8.80;;;8.30;;
6197;SDS011;3132;42.622;23.328;2022-10-23T14:11:04;8.53;;;8.03;;
6197;SDS011;3132;42.622;23.328;2022-10-23T14:13:30;9.27;;;8.57;;
6197;SDS011;3132;42.622;23.328;2022-10-23T14:15:55;9.47;;;8.93;;
6197;SDS011;3132;42.622;23.328;2022-10-23T14:18:21;9.40;;;8.70;;
6197;SDS011;3132;42.622;23.328;2022-10-23T14:20:47;8.17;;;7.60;;
6197;SDS011;3132;42.622;23.328;2022-10-23T14:23:12;9.70;;;8.80;;
6197;SDS011;3132;42.622;23.328;2022-10-23T14:25:38;9.40;;;8.17;;
6197;SDS011;3132;42.622;23.328;2022-10-23T14:28:03;9.03;;;8.53;;
6197;SDS011;3132;42.622;23.328;2022-10-23T14:30:29;8.93;;;8.43;;
6197;SDS011;3132;42.622;23.328;2022-10-23T14:32:54;9.80;;;9.10;;
6197;SDS011;3132;42.622;23.328;2022-10-23T14:35:19;9.40;;;8.80;;
6197;SDS011;3132;42.622;23.328;2022-10-23T14:37:45;9.80;;;9.10;;
6197;SDS011;3132;42.622;23.328;2022-10-23T14:40:10;9.90;;;9.30;;
6197;SDS011;3132;42.622;23.328;2022-10-23T14:42:36;9.57;;;9.03;;
6197;SDS011;3132;42.622;23.328;2022-10-23T14:45:01;9.93;;;9.03;;
6197;SDS011;3132;42.622;23.328;2022-10-23T14:47:28;9.63;;;9.03;;
6197;SDS011;3132;42.622;23.328;2022-10-23T14:49:54;9.83;;;9.03;;
6197;SDS011;3132;42.622;23.328;2022-10-23T14:52:20;10.20;;;9.50;;
6197;SDS011;3132;42.622;23.328;2022-10-23T14:54:46;9.87;;;9.23;;
6197;SDS011;3132;42.622;23.328;2022-10-23T14:57:11;9.53;;;8.93;;
6197;SDS011;3132;42.622;23.328;2022-10-23T14:59:40;9.03;;;8.43;;
6197;SDS011;3132;42.622;23.328;2022-10-23T15:02:05;10.47;;;9.57;;
6197;SDS011;3132;42.622;23.328;2022-10-23T15:04:33;12.23;;;11.10;;
6197;SDS011;3132;42.622;23.328;2022-10-23T15:06:58;13.20;;;12.13;;
6197;SDS011;3132;42.622;23.328;2022-10-23T15:09:23;10.20;;;9.47;;
6197;SDS011;3132;42.622;23.328;2022-10-23T15:11:49;11.63;;;10.47;;
6197;SDS011;3132;42.622;23.328;2022-10-23T15:14:14;10.70;;;9.63;;
6197;SDS011;3132;42.622;23.328;2022-10-23T15:16:40;10.90;;;10.10;;
6197;SDS011;3132;42.622;23.328;2022-10-23T15:19:09;11.40;;;10.50;;
6197;SDS011;3132;42.622;23.328;2022-10-23T15:21:35;9.67;;;9.00;;
6197;SDS011;3132;42.622;23.328;2022-10-23T15:24:00;9.80;;;8.90;;
6197;SDS011;3132;42.622;23.328;2022-10-23T15:26:26;12.13;;;11.23;;
6197;SDS011;3132;42.622;23.328;2022-10-23T15:28:58;11.37;;;10.27;;
6197;SDS011;3132;42.622;23.328;2022-10-23T15:33:53;11.83;;;10.83;;
6197;SDS011;3132;42.622;23.328;2022-10-23T15:36:19;11.67;;;10.87;;
6197;SDS011;3132;42.622;23.328;2022-10-23T15:38:44;15.60;;;12.80;;
6197;SDS011;3132;42.622;23.328;2022-10-23T15:41:13;24.00;;;15.63;;
6197;SDS011;3132;42.622;23.328;2022-10-23T15:43:40;28.17;;;18.40;;
6197;SDS011;3132;42.622;23.328;2022-10-23T15:46:06;34.30;;;19.70;;
6197;SDS011;3132;42.622;23.328;2022-10-23T15:48:31;36.50;;;25.00;;
6197;SDS011;3132;42.622;23.328;2022-10-23T15:50:56;44.53;;;25.00;;
6197;SDS011;3132;42.622;23.328;2022-10-23T15:53:23;31.37;;;19.13;;
6197;SDS011;3132;42.622;23.328;2022-10-23T15:55:49;25.33;;;15.43;;
6197;SDS011;3132;42.622;23.328;2022-10-23T15:58:14;23.37;;;16.53;;
6197;SDS011;3132;42.622;23.328;2022-10-23T16:00:39;16.97;;;14.73;;
6197;SDS011;3132;42.622;23.328;2022-10-23T16:03:05;15.80;;;13.40;;
6197;SDS011;3132;42.622;23.328;2022-10-23T16:05:30;16.17;;;12.47;;
6197;SDS011;3132;42.622;23.328;2022-10-23T16:07:56;11.93;;;10.83;;
6197;SDS011;3132;42.622;23.328;2022-10-23T16:10:21;17.33;;;15.50;;
6197;SDS011;3132;42.622;23.328;2022-10-23T16:12:47;19.17;;;16.90;;
6197;SDS011;3132;42.622;23.328;2022-10-23T16:15:12;17.53;;;15.37;;
6197;SDS011;3132;42.622;23.328;2022-10-23T16:17:38;14.67;;;13.37;;
6197;SDS011;3132;42.622;23.328;2022-10-23T16:20:04;16.63;;;13.87;;
6197;SDS011;3132;42.622;23.328;2022-10-23T16:22:29;17.77;;;15.70;;
6197;SDS011;3132;42.622;23.328;2022-10-23T16:24:55;19.77;;;16.40;;
6197;SDS011;3132;42.622;23.328;2022-10-23T16:27:20;20.40;;;16.50;;
6197;SDS011;3132;42.622;23.328;2022-10-23T16:29:46;20.33;;;15.30;;
6197;SDS011;3132;42.622;23.328;2022-10-23T16:32:11;19.60;;;11.93;;
6197;SDS011;3132;42.622;23.328;2022-10-23T16:34:36;13.60;;;12.33;;
6197;SDS011;3132;42.622;23.328;2022-10-23T16:37:02;12.73;;;10.73;;
6197;SDS011;3132;42.622;23.328;2022-10-23T16:39:27;12.87;;;11.60;;
6197;SDS011;3132;42.622;23.328;2022-10-23T16:41:54;12.60;;;11.30;;
6197;SDS011;3132;42.622;23.328;2022-10-23T16:44:19;12.67;;;11.37;;
6197;SDS011;3132;42.622;23.328;2022-10-23T16:46:45;12.23;;;11.23;;
6197;SDS011;3132;42.622;23.328;2022-10-23T16:49:11;14.73;;;12.60;;
6197;SDS011;3132;42.622;23.328;2022-10-23T16:51:37;13.50;;;12.30;;
6197;SDS011;3132;42.622;23.328;2022-10-23T16:54:03;15.17;;;12.63;;
6197;SDS011;3132;42.622;23.328;2022-10-23T16:56:29;14.67;;;13.20;;
6197;SDS011;3132;42.622;23.328;2022-10-23T16:58:55;15.30;;;13.70;;
6197;SDS011;3132;42.622;23.328;2022-10-23T17:01:22;17.80;;;13.60;;
6197;SDS011;3132;42.622;23.328;2022-10-23T17:03:50;16.87;;;15.17;;
6197;SDS011;3132;42.622;23.328;2022-10-23T17:06:18;15.60;;;14.03;;
6197;SDS011;3132;42.622;23.328;2022-10-23T17:08:51;16.50;;;14.80;;